createdAt,value
2022-11-14T00:00:30.950Z,21.9
2022-11-14T00:06:14.560Z,21.9
2022-11-14T00:11:38.136Z,21.8
2022-11-14T00:16:44.188Z,21.8
2022-11-14T00:22:06.961Z,21.8
2022-11-14T00:27:45.454Z,21.8
2022-11-14T00:33:22.867Z,21.8
2022-11-14T00:38:46.147Z,21.8
2022-11-14T00:43:53.014Z,21.8
2022-11-14T00:49:30.508Z,21.8
2022-11-14T00:55:08.227Z,21.8
2022-11-14T01:00:47.023Z,21.8
2022-11-14T01:06:29.535Z,21.8
2022-11-14T01:12:07.949Z,21.8
2022-11-14T01:17:30.408Z,21.8
2022-11-14T01:22:57.306Z,21.8
2022-11-14T01:28:35.015Z,21.8
2022-11-14T01:34:12.602Z,21.7
2022-11-14T01:39:35.251Z,21.7
2022-11-14T01:45:18.646Z,21.8
2022-11-14T01:50:56.038Z,21.7
2022-11-14T01:56:33.323Z,21.7
2022-11-14T02:01:40.792Z,21.6
2022-11-14T02:07:24.085Z,21.6
2022-11-14T02:13:01.992Z,21.6
2022-11-14T02:19:12.902Z,21.6
2022-11-14T02:24:38.612Z,21.6
2022-11-14T02:30:02.207Z,21.6
2022-11-14T02:35:45.912Z,21.6
2022-11-14T02:41:23.992Z,21.6
2022-11-14T02:47:02.012Z,21.6
2022-11-14T02:52:40.139Z,21.6
2022-11-14T02:57:33.497Z,21.6
2022-11-14T03:03:07.529Z,21.6
2022-11-14T03:07:43.892Z,21.6
2022-11-14T03:12:50.489Z,21.5
2022-11-14T03:18:28.940Z,21.5
2022-11-14T03:23:36.233Z,21.5
2022-11-14T03:29:13.053Z,21.5
2022-11-14T03:34:51.704Z,21.5
2022-11-14T03:40:32.303Z,21.5
2022-11-14T03:46:08.259Z,21.5
2022-11-14T03:51:47.097Z,21.5
2022-11-14T03:56:53.979Z,21.5
2022-11-14T04:02:00.723Z,21.4
2022-11-14T04:07:39.580Z,21.4
2022-11-14T04:13:22.886Z,21.4
2022-11-14T04:19:04.022Z,21.4
2022-11-14T04:24:27.898Z,21.4
2022-11-14T04:29:50.488Z,21.4
2022-11-14T04:35:11.783Z,21.4
2022-11-14T04:40:51.708Z,21.4
2022-11-14T04:46:30.515Z,21.4
2022-11-14T04:51:51.286Z,21.4
2022-11-14T04:57:29.253Z,21.4
2022-11-14T05:02:57.700Z,21.4
2022-11-14T05:08:20.121Z,21.4
2022-11-14T05:14:02.216Z,21.4
2022-11-14T05:19:23.469Z,21.4
2022-11-14T05:25:00.351Z,21.4
2022-11-14T05:30:10.716Z,21.3
2022-11-14T05:35:21.453Z,21.3
2022-11-14T05:40:27.503Z,21.3
2022-11-14T05:45:49.220Z,21.3
2022-11-14T05:51:27.468Z,21.3
2022-11-14T05:57:09.702Z,21.3
2022-11-14T06:02:55.102Z,21.3
2022-11-14T06:08:18.235Z,21.3
2022-11-14T06:13:56.061Z,21.3
2022-11-14T06:19:34.612Z,21.3
2022-11-14T06:25:12.264Z,21.3
2022-11-14T06:30:53.419Z,21.3
2022-11-14T06:36:30.924Z,21.3
2022-11-14T06:42:09.096Z,21.2
2022-11-14T06:47:52.811Z,21.2
2022-11-14T06:53:04.399Z,21.2
2022-11-14T08:03:28.904Z,21.1
2022-11-14T08:25:55.591Z,21.1
2022-11-14T08:31:39.130Z,21.1
2022-11-14T08:37:06.354Z,21.1
2022-11-14T08:42:45.223Z,21.1
2022-11-14T08:48:22.936Z,21.1
2022-11-14T08:54:02.475Z,21.1
2022-11-14T08:59:40.688Z,21.1
2022-11-14T09:05:24.105Z,21.1
2022-11-14T09:11:05.470Z,21.1
2022-11-14T09:16:43.986Z,21
2022-11-14T09:22:34.208Z,21
2022-11-14T09:28:20.855Z,21
2022-11-14T09:34:02.125Z,21
2022-11-14T09:39:45.332Z,21
2022-11-14T09:45:28.125Z,21
2022-11-14T09:51:11.491Z,20.9
2022-11-14T09:56:49.723Z,20.9
2022-11-14T10:02:18.092Z,20.9
2022-11-14T10:07:57.163Z,20.9
2022-11-14T10:13:35.525Z,20.8
2022-11-14T10:18:59.285Z,20.8
2022-11-14T10:24:36.980Z,20.8
2022-11-14T10:30:22.350Z,20.8
2022-11-14T10:36:07.890Z,20.8
2022-11-14T10:42:15.314Z,20.7
2022-11-14T10:47:40.965Z,20.7
2022-11-14T10:53:19.862Z,20.6
2022-11-14T10:59:37.821Z,20.6
2022-11-14T11:05:16.096Z,20.6
2022-11-14T11:12:24.963Z,43.5
2022-11-14T11:17:53.597Z,41.8
2022-11-14T11:23:21.764Z,35.9
2022-11-14T11:29:00.121Z,35.2
2022-11-14T11:34:38.748Z,46.6
2022-11-14T11:40:18.026Z,40.8
2022-11-14T11:47:22.833Z,41.3
2022-11-14T11:52:45.380Z,42.2
2022-11-14T11:58:28.880Z,42.8
2022-11-14T12:03:58.084Z,43.4
2022-11-14T12:10:12.201Z,43.9
2022-11-14T12:15:50.796Z,44.2
2022-11-14T12:21:35.291Z,44.4
2022-11-14T12:27:20.407Z,44.7
2022-11-14T12:33:04.777Z,44.8
2022-11-14T12:38:45.880Z,44.8
2022-11-14T12:44:27.397Z,44.7
2022-11-14T12:50:08.010Z,44.5
2022-11-14T12:55:46.562Z,44.3
2022-11-14T13:01:27.115Z,44
2022-11-14T13:06:40.161Z,43.7
2022-11-14T13:12:08.073Z,43.3
2022-11-14T13:17:51.093Z,41.4
2022-11-14T13:23:31.126Z,38
2022-11-14T13:29:32.067Z,35.6
2022-11-14T13:35:10.869Z,33.3
2022-11-14T13:40:54.044Z,31.5
2022-11-14T13:46:37.532Z,30.2
2022-11-14T13:52:43.616Z,29.1
2022-11-14T13:58:22.233Z,28.1
2022-11-14T14:04:03.802Z,27.4
2022-11-14T14:09:47.402Z,26.7
2022-11-14T14:15:25.828Z,26.1
2022-11-14T14:21:10.866Z,25.6
2022-11-14T14:26:49.474Z,25.3
2022-11-14T14:32:31.930Z,24.9
2022-11-14T14:38:15.345Z,24.6
2022-11-14T14:43:58.723Z,24.3
2022-11-14T14:49:37.738Z,24
2022-11-14T14:55:20.766Z,23.8
2022-11-14T15:00:58.512Z,23.6
2022-11-14T15:06:26.791Z,23.4
2022-11-14T15:12:05.962Z,23.3
2022-11-14T15:17:51.341Z,23.1
2022-11-14T15:23:29.252Z,22.9
2022-11-14T15:29:07.589Z,22.8
2022-11-14T15:34:30.098Z,22.7
2022-11-14T15:40:44.119Z,22.6
2022-11-14T15:46:22.310Z,22.4
2022-11-14T15:52:00.398Z,22.3
2022-11-14T15:57:39.181Z,22.3
2022-11-14T16:03:43.099Z,22.2
2022-11-14T16:09:21.703Z,22.1
2022-11-14T16:14:34.624Z,22.1
2022-11-14T16:19:56.942Z,21.9
2022-11-14T16:25:23.628Z,21.9
2022-11-14T16:30:46.408Z,21.8
2022-11-14T16:36:09.024Z,21.8
2022-11-14T16:41:46.749Z,21.8
2022-11-14T16:47:16.758Z,21.7
2022-11-14T16:52:53.465Z,21.6
2022-11-14T16:58:15.735Z,21.6
2022-11-14T17:03:55.939Z,21.6
2022-11-14T17:09:24.534Z,21.5
2022-11-14T17:14:48.077Z,21.5
2022-11-14T17:20:26.732Z,21.4
2022-11-14T17:25:54.559Z,21.4
2022-11-14T17:31:01.092Z,21.4
2022-11-14T17:36:11.696Z,21.3
2022-11-14T17:41:48.699Z,21.3
2022-11-14T17:47:26.191Z,21.3
2022-11-14T17:53:08.912Z,21.7
2022-11-14T17:58:37.477Z,22.1
2022-11-14T18:04:04.633Z,22.4
2022-11-14T18:09:47.583Z,22.6
2022-11-14T18:15:09.971Z,22.8
2022-11-14T18:21:21.286Z,23
2022-11-14T18:26:59.078Z,23.2
2022-11-14T18:32:59.956Z,23.4
2022-11-14T18:38:37.549Z,23.7
2022-11-14T18:43:49.939Z,23.9
2022-11-14T18:49:28.473Z,24.1
2022-11-14T18:54:56.981Z,24.2
2022-11-14T19:00:04.304Z,24.4
2022-11-14T19:05:43.412Z,24.4
2022-11-14T19:11:11.974Z,24.4
2022-11-14T19:16:50.299Z,24.4
2022-11-14T19:22:32.256Z,24.3
2022-11-14T19:28:12.640Z,24.3
2022-11-14T19:33:50.912Z,24.2
2022-11-14T19:39:48.816Z,24.1
2022-11-14T19:45:13.527Z,24
2022-11-14T19:50:36.112Z,23.9
2022-11-14T19:56:17.204Z,23.9
2022-11-14T20:01:59.348Z,23.8
2022-11-14T20:07:37.994Z,23.8
2022-11-14T20:13:19.266Z,23.7
2022-11-14T20:18:41.779Z,23.6
2022-11-14T20:24:06.122Z,23.6
2022-11-14T20:29:19.047Z,23.6
2022-11-14T20:34:57.601Z,23.6
2022-11-14T20:40:58.304Z,23.6
2022-11-14T20:46:36.402Z,23.7
2022-11-14T20:52:00.105Z,23.7
2022-11-14T20:57:28.385Z,23.7
2022-11-14T21:03:07.741Z,23.7
2022-11-14T21:08:45.963Z,23.7
2022-11-14T21:14:23.553Z,23.7
2022-11-14T21:20:00.270Z,23.6
2022-11-14T21:25:28.914Z,23.6
2022-11-14T21:31:07.197Z,23.6
2022-11-14T21:37:04.914Z,23.6
2022-11-14T21:42:47.301Z,23.5
2022-11-14T21:48:25.205Z,23.4
2022-11-14T21:53:48.610Z,23.4
2022-11-14T21:58:56.414Z,23.3
2022-11-14T22:04:38.788Z,23.3
2022-11-14T22:10:18.580Z,23.3
2022-11-14T22:15:57.033Z,23.3
2022-11-14T22:21:40.142Z,23.3
2022-11-14T22:27:02.403Z,23.2
2022-11-14T22:32:08.316Z,23.1
2022-11-14T22:37:46.668Z,23.2
2022-11-14T22:43:30.895Z,23.1
2022-11-14T22:49:07.974Z,23.1
2022-11-14T22:54:29.927Z,23.1
2022-11-14T22:59:36.654Z,23
2022-11-14T23:05:21.434Z,23
2022-11-14T23:10:59.471Z,23
2022-11-14T23:16:37.972Z,22.9
2022-11-14T23:22:02.223Z,22.9
2022-11-14T23:27:39.710Z,22.9
2022-11-14T23:33:17.052Z,22.9
2022-11-14T23:38:54.882Z,22.9
2022-11-14T23:44:31.839Z,22.9
2022-11-14T23:49:53.459Z,22.8
2022-11-14T23:55:30.823Z,22.8
